sensor_id;sensor_type;location;lat;lon;timestamp;P1;durP1;ratioP1;P2;durP2;ratioP2
82415;SDS011;72058;47.782;10.618;2024-03-08T00:00:37;26.83;;;18.43;;
82415;SDS011;72058;47.782;10.618;2024-03-08T00:03:05;25.02;;;16.48;;
82415;SDS011;72058;47.782;10.618;2024-03-08T00:05:30;22.05;;;16.05;;
82415;SDS011;72058;47.782;10.618;2024-03-08T00:07:56;21.08;;;15.40;;
82415;SDS011;72058;47.782;10.618;2024-03-08T00:10:22;26.45;;;17.15;;
82415;SDS011;72058;47.782;10.618;2024-03-08T00:12:47;28.73;;;17.60;;
82415;SDS011;72058;47.782;10.618;2024-03-08T00:15:16;22.48;;;16.27;;
82415;SDS011;72058;47.782;10.618;2024-03-08T00:17:43;24.75;;;16.63;;
82415;SDS011;72058;47.782;10.618;2024-03-08T00:20:09;21.75;;;14.88;;
82415;SDS011;72058;47.782;10.618;2024-03-08T00:22:35;25.02;;;15.23;;
82415;SDS011;72058;47.782;10.618;2024-03-08T00:25:01;21.45;;;14.88;;
82415;SDS011;72058;47.782;10.618;2024-03-08T00:27:27;20.92;;;13.70;;
82415;SDS011;72058;47.782;10.618;2024-03-08T00:29:55;22.35;;;14.73;;
82415;SDS011;72058;47.782;10.618;2024-03-08T00:32:20;23.83;;;16.23;;
82415;SDS011;72058;47.782;10.618;2024-03-08T00:34:46;20.10;;;15.27;;
82415;SDS011;72058;47.782;10.618;2024-03-08T00:37:11;24.52;;;15.93;;
82415;SDS011;72058;47.782;10.618;2024-03-08T00:39:37;22.95;;;15.70;;
82415;SDS011;72058;47.782;10.618;2024-03-08T00:42:02;25.03;;;16.13;;
82415;SDS011;72058;47.782;10.618;2024-03-08T00:44:28;24.15;;;17.05;;
82415;SDS011;72058;47.782;10.618;2024-03-08T00:46:53;27.20;;;17.47;;
82415;SDS011;72058;47.782;10.618;2024-03-08T00:49:18;25.93;;;16.63;;
82415;SDS011;72058;47.782;10.618;2024-03-08T00:51:44;26.42;;;17.85;;
82415;SDS011;72058;47.782;10.618;2024-03-08T00:54:10;29.83;;;18.23;;
82415;SDS011;72058;47.782;10.618;2024-03-08T00:56:35;29.20;;;19.60;;
82415;SDS011;72058;47.782;10.618;2024-03-08T00:59:01;28.97;;;18.20;;
82415;SDS011;72058;47.782;10.618;2024-03-08T01:01:27;35.50;;;19.65;;
82415;SDS011;72058;47.782;10.618;2024-03-08T01:03:53;31.83;;;19.48;;
82415;SDS011;72058;47.782;10.618;2024-03-08T01:06:18;31.50;;;19.05;;
82415;SDS011;72058;47.782;10.618;2024-03-08T01:08:44;29.85;;;17.38;;
82415;SDS011;72058;47.782;10.618;2024-03-08T01:11:10;30.58;;;18.40;;
82415;SDS011;72058;47.782;10.618;2024-03-08T01:13:36;31.85;;;16.77;;
82415;SDS011;72058;47.782;10.618;2024-03-08T01:16:01;34.07;;;18.53;;
82415;SDS011;72058;47.782;10.618;2024-03-08T01:18:28;31.23;;;20.10;;
82415;SDS011;72058;47.782;10.618;2024-03-08T01:20:54;32.83;;;19.55;;
82415;SDS011;72058;47.782;10.618;2024-03-08T01:23:19;32.40;;;16.90;;
82415;SDS011;72058;47.782;10.618;2024-03-08T01:25:44;34.77;;;19.63;;
82415;SDS011;72058;47.782;10.618;2024-03-08T01:28:10;34.30;;;22.07;;
82415;SDS011;72058;47.782;10.618;2024-03-08T01:30:35;35.20;;;22.40;;
82415;SDS011;72058;47.782;10.618;2024-03-08T01:33:02;34.30;;;17.15;;
82415;SDS011;72058;47.782;10.618;2024-03-08T01:35:28;34.30;;;21.33;;
82415;SDS011;72058;47.782;10.618;2024-03-08T01:37:53;32.25;;;19.67;;
82415;SDS011;72058;47.782;10.618;2024-03-08T01:40:19;31.47;;;18.20;;
82415;SDS011;72058;47.782;10.618;2024-03-08T01:42:44;30.23;;;19.25;;
82415;SDS011;72058;47.782;10.618;2024-03-08T01:45:10;31.03;;;17.33;;
82415;SDS011;72058;47.782;10.618;2024-03-08T01:47:35;31.00;;;15.82;;
82415;SDS011;72058;47.782;10.618;2024-03-08T01:50:02;27.15;;;18.58;;
82415;SDS011;72058;47.782;10.618;2024-03-08T01:52:31;35.28;;;19.88;;
82415;SDS011;72058;47.782;10.618;2024-03-08T01:55:00;30.85;;;18.27;;
82415;SDS011;72058;47.782;10.618;2024-03-08T01:57:29;34.47;;;20.05;;
82415;SDS011;72058;47.782;10.618;2024-03-08T01:59:56;32.78;;;17.08;;
82415;SDS011;72058;47.782;10.618;2024-03-08T02:02:22;34.72;;;17.20;;
82415;SDS011;72058;47.782;10.618;2024-03-08T02:04:48;29.90;;;18.92;;
82415;SDS011;72058;47.782;10.618;2024-03-08T02:07:13;26.25;;;17.65;;
82415;SDS011;72058;47.782;10.618;2024-03-08T02:09:39;29.73;;;18.67;;
82415;SDS011;72058;47.782;10.618;2024-03-08T02:12:05;29.42;;;19.10;;
82415;SDS011;72058;47.782;10.618;2024-03-08T02:14:30;28.45;;;17.80;;
82415;SDS011;72058;47.782;10.618;2024-03-08T02:16:59;32.80;;;17.73;;
82415;SDS011;72058;47.782;10.618;2024-03-08T02:19:25;28.08;;;17.38;;
82415;SDS011;72058;47.782;10.618;2024-03-08T02:21:51;27.80;;;17.23;;
82415;SDS011;72058;47.782;10.618;2024-03-08T02:24:16;26.33;;;13.88;;
82415;SDS011;72058;47.782;10.618;2024-03-08T02:26:41;30.13;;;17.73;;
82415;SDS011;72058;47.782;10.618;2024-03-08T02:29:07;26.38;;;17.25;;
82415;SDS011;72058;47.782;10.618;2024-03-08T02:31:33;29.63;;;16.80;;
82415;SDS011;72058;47.782;10.618;2024-03-08T02:33:59;29.50;;;16.27;;
82415;SDS011;72058;47.782;10.618;2024-03-08T02:36:24;29.48;;;16.60;;
82415;SDS011;72058;47.782;10.618;2024-03-08T02:38:49;30.40;;;18.03;;
82415;SDS011;72058;47.782;10.618;2024-03-08T02:41:15;28.67;;;17.40;;
82415;SDS011;72058;47.782;10.618;2024-03-08T02:43:40;29.67;;;16.17;;
82415;SDS011;72058;47.782;10.618;2024-03-08T02:46:06;28.75;;;17.38;;
82415;SDS011;72058;47.782;10.618;2024-03-08T02:48:31;29.50;;;18.15;;
82415;SDS011;72058;47.782;10.618;2024-03-08T02:50:56;28.75;;;17.63;;
82415;SDS011;72058;47.782;10.618;2024-03-08T02:53:22;32.43;;;19.57;;
82415;SDS011;72058;47.782;10.618;2024-03-08T02:55:47;25.60;;;15.73;;
82415;SDS011;72058;47.782;10.618;2024-03-08T02:58:12;30.05;;;18.48;;
82415;SDS011;72058;47.782;10.618;2024-03-08T03:00:39;34.30;;;18.75;;
82415;SDS011;72058;47.782;10.618;2024-03-08T03:03:05;33.53;;;19.33;;
82415;SDS011;72058;47.782;10.618;2024-03-08T03:05:31;35.03;;;17.10;;
82415;SDS011;72058;47.782;10.618;2024-03-08T03:07:57;27.70;;;17.08;;
82415;SDS011;72058;47.782;10.618;2024-03-08T03:10:23;27.23;;;16.58;;
82415;SDS011;72058;47.782;10.618;2024-03-08T03:12:48;31.50;;;18.58;;
82415;SDS011;72058;47.782;10.618;2024-03-08T03:15:14;30.20;;;18.52;;
82415;SDS011;72058;47.782;10.618;2024-03-08T03:17:45;29.42;;;18.35;;
82415;SDS011;72058;47.782;10.618;2024-03-08T03:20:11;29.35;;;18.77;;
82415;SDS011;72058;47.782;10.618;2024-03-08T03:22:47;29.85;;;18.92;;
82415;SDS011;72058;47.782;10.618;2024-03-08T03:25:16;31.20;;;20.30;;
82415;SDS011;72058;47.782;10.618;2024-03-08T03:27:48;28.50;;;16.33;;
82415;SDS011;72058;47.782;10.618;2024-03-08T03:30:14;29.83;;;17.30;;
82415;SDS011;72058;47.782;10.618;2024-03-08T03:32:51;29.00;;;18.00;;
82415;SDS011;72058;47.782;10.618;2024-03-08T03:35:17;27.42;;;16.25;;
82415;SDS011;72058;47.782;10.618;2024-03-08T03:37:43;22.90;;;16.52;;
82415;SDS011;72058;47.782;10.618;2024-03-08T03:40:26;23.40;;;15.00;;
82415;SDS011;72058;47.782;10.618;2024-03-08T03:42:52;28.40;;;17.77;;
82415;SDS011;72058;47.782;10.618;2024-03-08T03:45:18;22.70;;;15.10;;
82415;SDS011;72058;47.782;10.618;2024-03-08T03:47:45;25.70;;;15.65;;
82415;SDS011;72058;47.782;10.618;2024-03-08T03:50:10;23.95;;;16.65;;
82415;SDS011;72058;47.782;10.618;2024-03-08T03:52:36;23.35;;;15.18;;
82415;SDS011;72058;47.782;10.618;2024-03-08T03:55:01;24.83;;;16.27;;
82415;SDS011;72058;47.782;10.618;2024-03-08T03:57:26;26.25;;;16.02;;
82415;SDS011;72058;47.782;10.618;2024-03-08T03:59:52;24.13;;;15.43;;
82415;SDS011;72058;47.782;10.618;2024-03-08T04:02:17;23.63;;;15.17;;
82415;SDS011;72058;47.782;10.618;2024-03-08T04:04:45;24.00;;;16.00;;
82415;SDS011;72058;47.782;10.618;2024-03-08T04:07:10;28.95;;;18.80;;
82415;SDS011;72058;47.782;10.618;2024-03-08T04:09:36;28.77;;;16.88;;
82415;SDS011;72058;47.782;10.618;2024-03-08T04:12:01;31.83;;;18.23;;
82415;SDS011;72058;47.782;10.618;2024-03-08T04:14:27;29.55;;;18.13;;
82415;SDS011;72058;47.782;10.618;2024-03-08T04:16:52;28.03;;;17.37;;
82415;SDS011;72058;47.782;10.618;2024-03-08T04:19:17;30.90;;;17.38;;
82415;SDS011;72058;47.782;10.618;2024-03-08T04:21:44;28.50;;;17.02;;
82415;SDS011;72058;47.782;10.618;2024-03-08T04:24:09;27.38;;;16.58;;
82415;SDS011;72058;47.782;10.618;2024-03-08T04:26:35;30.13;;;17.65;;
82415;SDS011;72058;47.782;10.618;2024-03-08T04:29:01;23.60;;;15.68;;
82415;SDS011;72058;47.782;10.618;2024-03-08T04:31:26;28.50;;;17.00;;
82415;SDS011;72058;47.782;10.618;2024-03-08T04:33:51;28.73;;;17.15;;
82415;SDS011;72058;47.782;10.618;2024-03-08T04:36:17;30.00;;;15.05;;
82415;SDS011;72058;47.782;10.618;2024-03-08T04:38:42;25.87;;;16.93;;
82415;SDS011;72058;47.782;10.618;2024-03-08T04:41:08;24.93;;;13.53;;
82415;SDS011;72058;47.782;10.618;2024-03-08T04:43:34;24.83;;;17.00;;
82415;SDS011;72058;47.782;10.618;2024-03-08T04:45:59;28.85;;;18.25;;
82415;SDS011;72058;47.782;10.618;2024-03-08T04:48:25;25.00;;;16.50;;
82415;SDS011;72058;47.782;10.618;2024-03-08T04:50:53;30.13;;;18.42;;
82415;SDS011;72058;47.782;10.618;2024-03-08T04:53:18;29.65;;;14.80;;
82415;SDS011;72058;47.782;10.618;2024-03-08T04:55:44;31.88;;;18.70;;
82415;SDS011;72058;47.782;10.618;2024-03-08T04:58:10;30.35;;;17.48;;
82415;SDS011;72058;47.782;10.618;2024-03-08T05:00:35;32.60;;;17.40;;
82415;SDS011;72058;47.782;10.618;2024-03-08T05:03:00;30.08;;;18.25;;
82415;SDS011;72058;47.782;10.618;2024-03-08T05:05:26;26.65;;;16.05;;
82415;SDS011;72058;47.782;10.618;2024-03-08T05:07:53;29.83;;;16.48;;
82415;SDS011;72058;47.782;10.618;2024-03-08T05:10:18;30.50;;;17.70;;
82415;SDS011;72058;47.782;10.618;2024-03-08T05:12:44;27.53;;;15.53;;
82415;SDS011;72058;47.782;10.618;2024-03-08T05:15:09;25.38;;;13.52;;
82415;SDS011;72058;47.782;10.618;2024-03-08T05:17:35;28.40;;;14.55;;
82415;SDS011;72058;47.782;10.618;2024-03-08T05:20:01;27.27;;;14.68;;
82415;SDS011;72058;47.782;10.618;2024-03-08T05:22:26;26.88;;;15.02;;
82415;SDS011;72058;47.782;10.618;2024-03-08T05:24:52;23.85;;;14.10;;
82415;SDS011;72058;47.782;10.618;2024-03-08T05:27:18;25.42;;;15.50;;
82415;SDS011;72058;47.782;10.618;2024-03-08T05:29:43;26.77;;;15.60;;
82415;SDS011;72058;47.782;10.618;2024-03-08T05:32:09;27.23;;;17.38;;
82415;SDS011;72058;47.782;10.618;2024-03-08T05:34:35;28.55;;;17.63;;
82415;SDS011;72058;47.782;10.618;2024-03-08T05:37:00;27.95;;;15.30;;
82415;SDS011;72058;47.782;10.618;2024-03-08T05:39:26;22.20;;;13.60;;
82415;SDS011;72058;47.782;10.618;2024-03-08T05:41:51;27.02;;;15.85;;
82415;SDS011;72058;47.782;10.618;2024-03-08T05:44:17;24.55;;;14.48;;
82415;SDS011;72058;47.782;10.618;2024-03-08T05:46:43;23.52;;;16.23;;
82415;SDS011;72058;47.782;10.618;2024-03-08T05:49:08;25.90;;;15.27;;
82415;SDS011;72058;47.782;10.618;2024-03-08T05:51:36;21.17;;;12.77;;
82415;SDS011;72058;47.782;10.618;2024-03-08T05:54:06;23.92;;;14.55;;
82415;SDS011;72058;47.782;10.618;2024-03-08T05:56:35;25.70;;;15.70;;
82415;SDS011;72058;47.782;10.618;2024-03-08T05:59:00;25.63;;;14.65;;
82415;SDS011;72058;47.782;10.618;2024-03-08T06:01:26;25.63;;;15.63;;
82415;SDS011;72058;47.782;10.618;2024-03-08T06:03:52;19.38;;;12.30;;
82415;SDS011;72058;47.782;10.618;2024-03-08T06:06:20;24.50;;;14.63;;
82415;SDS011;72058;47.782;10.618;2024-03-08T06:08:46;25.05;;;15.00;;
82415;SDS011;72058;47.782;10.618;2024-03-08T06:11:14;27.33;;;14.57;;
82415;SDS011;72058;47.782;10.618;2024-03-08T06:13:39;25.05;;;15.20;;
82415;SDS011;72058;47.782;10.618;2024-03-08T06:16:05;25.37;;;14.13;;
82415;SDS011;72058;47.782;10.618;2024-03-08T06:18:33;26.55;;;14.65;;
82415;SDS011;72058;47.782;10.618;2024-03-08T06:21:04;24.50;;;15.05;;
82415;SDS011;72058;47.782;10.618;2024-03-08T06:23:33;26.83;;;17.58;;
82415;SDS011;72058;47.782;10.618;2024-03-08T06:25:59;20.08;;;13.82;;
82415;SDS011;72058;47.782;10.618;2024-03-08T06:28:24;19.35;;;12.65;;
82415;SDS011;72058;47.782;10.618;2024-03-08T06:30:50;18.73;;;12.13;;
82415;SDS011;72058;47.782;10.618;2024-03-08T06:33:16;19.77;;;11.93;;
82415;SDS011;72058;47.782;10.618;2024-03-08T06:35:42;21.65;;;14.38;;
82415;SDS011;72058;47.782;10.618;2024-03-08T06:38:08;23.15;;;14.77;;
82415;SDS011;72058;47.782;10.618;2024-03-08T06:40:33;18.80;;;10.70;;
82415;SDS011;72058;47.782;10.618;2024-03-08T06:42:59;22.48;;;13.98;;
82415;SDS011;72058;47.782;10.618;2024-03-08T06:45:24;23.37;;;14.23;;
82415;SDS011;72058;47.782;10.618;2024-03-08T06:47:50;22.67;;;13.50;;
82415;SDS011;72058;47.782;10.618;2024-03-08T06:50:16;22.58;;;16.52;;
82415;SDS011;72058;47.782;10.618;2024-03-08T06:52:41;20.30;;;13.50;;
82415;SDS011;72058;47.782;10.618;2024-03-08T06:55:13;21.65;;;14.40;;
82415;SDS011;72058;47.782;10.618;2024-03-08T06:57:39;25.30;;;13.32;;
82415;SDS011;72058;47.782;10.618;2024-03-08T07:00:08;21.48;;;14.20;;
82415;SDS011;72058;47.782;10.618;2024-03-08T07:02:35;24.63;;;14.93;;
82415;SDS011;72058;47.782;10.618;2024-03-08T07:05:00;20.50;;;12.55;;
82415;SDS011;72058;47.782;10.618;2024-03-08T07:07:26;18.20;;;12.57;;
82415;SDS011;72058;47.782;10.618;2024-03-08T07:09:52;20.42;;;14.40;;
82415;SDS011;72058;47.782;10.618;2024-03-08T07:12:17;18.83;;;12.70;;
82415;SDS011;72058;47.782;10.618;2024-03-08T07:14:42;18.73;;;12.80;;
82415;SDS011;72058;47.782;10.618;2024-03-08T07:17:10;18.42;;;13.75;;
82415;SDS011;72058;47.782;10.618;2024-03-08T07:19:36;22.73;;;12.60;;
82415;SDS011;72058;47.782;10.618;2024-03-08T07:22:03;22.88;;;14.00;;
82415;SDS011;72058;47.782;10.618;2024-03-08T07:24:29;20.83;;;14.27;;
82415;SDS011;72058;47.782;10.618;2024-03-08T07:27:12;21.00;;;13.77;;
82415;SDS011;72058;47.782;10.618;2024-03-08T07:29:38;19.63;;;11.90;;
82415;SDS011;72058;47.782;10.618;2024-03-08T07:32:03;21.07;;;13.47;;
82415;SDS011;72058;47.782;10.618;2024-03-08T07:34:47;18.77;;;12.93;;
82415;SDS011;72058;47.782;10.618;2024-03-08T07:39:39;16.10;;;12.00;;
82415;SDS011;72058;47.782;10.618;2024-03-08T07:42:05;16.63;;;13.50;;
82415;SDS011;72058;47.782;10.618;2024-03-08T07:44:30;20.27;;;13.40;;
82415;SDS011;72058;47.782;10.618;2024-03-08T07:46:57;17.98;;;12.57;;
82415;SDS011;72058;47.782;10.618;2024-03-08T07:49:23;19.33;;;12.18;;
82415;SDS011;72058;47.782;10.618;2024-03-08T07:51:49;23.63;;;14.02;;
82415;SDS011;72058;47.782;10.618;2024-03-08T07:54:14;19.73;;;13.63;;
82415;SDS011;72058;47.782;10.618;2024-03-08T07:56:40;19.23;;;12.20;;
82415;SDS011;72058;47.782;10.618;2024-03-08T07:59:05;18.90;;;12.33;;
82415;SDS011;72058;47.782;10.618;2024-03-08T08:01:31;17.83;;;13.50;;
82415;SDS011;72058;47.782;10.618;2024-03-08T08:06:23;16.60;;;10.83;;
82415;SDS011;72058;47.782;10.618;2024-03-08T08:08:50;17.08;;;11.90;;
82415;SDS011;72058;47.782;10.618;2024-03-08T08:11:15;17.65;;;12.52;;
82415;SDS011;72058;47.782;10.618;2024-03-08T08:13:41;19.10;;;11.60;;
82415;SDS011;72058;47.782;10.618;2024-03-08T08:16:08;21.40;;;13.30;;
82415;SDS011;72058;47.782;10.618;2024-03-08T08:18:33;18.45;;;11.68;;
82415;SDS011;72058;47.782;10.618;2024-03-08T08:23:26;16.77;;;11.57;;
82415;SDS011;72058;47.782;10.618;2024-03-08T08:25:52;20.30;;;13.57;;
82415;SDS011;72058;47.782;10.618;2024-03-08T08:28:17;17.63;;;10.40;;
82415;SDS011;72058;47.782;10.618;2024-03-08T08:30:43;16.35;;;11.65;;
82415;SDS011;72058;47.782;10.618;2024-03-08T08:33:09;17.80;;;13.63;;
82415;SDS011;72058;47.782;10.618;2024-03-08T08:35:35;17.17;;;12.93;;
82415;SDS011;72058;47.782;10.618;2024-03-08T08:38:02;15.88;;;12.25;;
82415;SDS011;72058;47.782;10.618;2024-03-08T08:40:28;14.82;;;10.93;;
82415;SDS011;72058;47.782;10.618;2024-03-08T08:45:22;19.27;;;11.68;;
82415;SDS011;72058;47.782;10.618;2024-03-08T08:47:48;17.00;;;11.93;;
82415;SDS011;72058;47.782;10.618;2024-03-08T08:50:14;19.13;;;11.88;;
82415;SDS011;72058;47.782;10.618;2024-03-08T08:52:41;16.73;;;12.18;;
82415;SDS011;72058;47.782;10.618;2024-03-08T08:55:08;16.90;;;12.32;;
82415;SDS011;72058;47.782;10.618;2024-03-08T08:57:36;15.30;;;10.90;;
82415;SDS011;72058;47.782;10.618;2024-03-08T09:00:01;14.93;;;11.27;;
82415;SDS011;72058;47.782;10.618;2024-03-08T09:02:32;15.38;;;10.95;;
82415;SDS011;72058;47.782;10.618;2024-03-08T09:04:57;13.43;;;11.33;;
82415;SDS011;72058;47.782;10.618;2024-03-08T09:07:22;18.30;;;12.43;;
82415;SDS011;72058;47.782;10.618;2024-03-08T09:09:49;16.88;;;11.95;;
82415;SDS011;72058;47.782;10.618;2024-03-08T09:12:14;17.00;;;12.20;;
82415;SDS011;72058;47.782;10.618;2024-03-08T09:14:40;15.43;;;10.80;;
82415;SDS011;72058;47.782;10.618;2024-03-08T09:17:06;23.70;;;18.75;;
82415;SDS011;72058;47.782;10.618;2024-03-08T09:19:34;20.50;;;12.63;;
82415;SDS011;72058;47.782;10.618;2024-03-08T09:22:00;25.67;;;20.75;;
82415;SDS011;72058;47.782;10.618;2024-03-08T09:24:25;58.13;;;43.30;;
82415;SDS011;72058;47.782;10.618;2024-03-08T09:26:50;25.73;;;20.25;;
82415;SDS011;72058;47.782;10.618;2024-03-08T09:29:17;23.95;;;17.75;;
82415;SDS011;72058;47.782;10.618;2024-03-08T09:31:42;17.67;;;13.23;;
82415;SDS011;72058;47.782;10.618;2024-03-08T09:34:08;16.25;;;12.10;;
82415;SDS011;72058;47.782;10.618;2024-03-08T09:36:33;18.65;;;11.95;;
82415;SDS011;72058;47.782;10.618;2024-03-08T09:38:59;12.52;;;10.40;;
82415;SDS011;72058;47.782;10.618;2024-03-08T09:41:25;15.75;;;11.02;;
82415;SDS011;72058;47.782;10.618;2024-03-08T09:43:51;13.98;;;9.82;;
82415;SDS011;72058;47.782;10.618;2024-03-08T09:46:16;14.43;;;9.68;;
82415;SDS011;72058;47.782;10.618;2024-03-08T09:48:44;19.02;;;11.95;;
82415;SDS011;72058;47.782;10.618;2024-03-08T09:51:11;16.67;;;10.70;;
82415;SDS011;72058;47.782;10.618;2024-03-08T09:53:40;17.05;;;12.85;;
82415;SDS011;72058;47.782;10.618;2024-03-08T09:56:07;16.50;;;10.98;;
82415;SDS011;72058;47.782;10.618;2024-03-08T09:58:33;16.67;;;10.75;;
82415;SDS011;72058;47.782;10.618;2024-03-08T10:00:58;15.55;;;10.60;;
82415;SDS011;72058;47.782;10.618;2024-03-08T10:03:26;17.33;;;12.02;;
82415;SDS011;72058;47.782;10.618;2024-03-08T10:05:52;13.48;;;9.52;;
82415;SDS011;72058;47.782;10.618;2024-03-08T10:08:21;12.38;;;11.07;;
82415;SDS011;72058;47.782;10.618;2024-03-08T10:10:47;12.57;;;10.02;;
82415;SDS011;72058;47.782;10.618;2024-03-08T10:13:14;14.85;;;10.43;;
82415;SDS011;72058;47.782;10.618;2024-03-08T10:15:41;14.82;;;11.15;;
82415;SDS011;72058;47.782;10.618;2024-03-08T10:18:07;17.05;;;11.38;;
82415;SDS011;72058;47.782;10.618;2024-03-08T10:20:33;15.23;;;10.85;;
82415;SDS011;72058;47.782;10.618;2024-03-08T10:23:10;15.15;;;11.80;;
82415;SDS011;72058;47.782;10.618;2024-03-08T10:25:36;17.60;;;10.73;;
82415;SDS011;72058;47.782;10.618;2024-03-08T10:28:04;16.35;;;11.15;;
82415;SDS011;72058;47.782;10.618;2024-03-08T10:30:31;15.18;;;11.32;;
82415;SDS011;72058;47.782;10.618;2024-03-08T10:32:57;15.23;;;12.13;;
82415;SDS011;72058;47.782;10.618;2024-03-08T10:35:23;18.67;;;12.13;;
82415;SDS011;72058;47.782;10.618;2024-03-08T10:37:49;20.88;;;13.95;;
82415;SDS011;72058;47.782;10.618;2024-03-08T10:40:25;18.63;;;13.20;;
82415;SDS011;72058;47.782;10.618;2024-03-08T10:42:53;17.13;;;13.38;;
82415;SDS011;72058;47.782;10.618;2024-03-08T10:45:35;17.33;;;12.60;;
82415;SDS011;72058;47.782;10.618;2024-03-08T10:51:06;20.02;;;13.95;;
82415;SDS011;72058;47.782;10.618;2024-03-08T10:53:36;18.50;;;14.13;;
82415;SDS011;72058;47.782;10.618;2024-03-08T10:56:04;17.20;;;12.07;;
82415;SDS011;72058;47.782;10.618;2024-03-08T10:58:30;18.73;;;13.65;;
82415;SDS011;72058;47.782;10.618;2024-03-08T11:00:57;17.75;;;12.20;;
82415;SDS011;72058;47.782;10.618;2024-03-08T11:06:07;18.23;;;10.85;;
82415;SDS011;72058;47.782;10.618;2024-03-08T11:08:35;19.23;;;11.95;;
82415;SDS011;72058;47.782;10.618;2024-03-08T11:11:01;22.02;;;14.07;;
82415;SDS011;72058;47.782;10.618;2024-03-08T11:16:07;21.88;;;13.52;;
82415;SDS011;72058;47.782;10.618;2024-03-08T11:18:34;20.88;;;14.40;;
82415;SDS011;72058;47.782;10.618;2024-03-08T11:21:04;17.20;;;12.50;;
82415;SDS011;72058;47.782;10.618;2024-03-08T11:23:37;16.88;;;11.30;;
82415;SDS011;72058;47.782;10.618;2024-03-08T11:26:05;23.15;;;14.20;;
82415;SDS011;72058;47.782;10.618;2024-03-08T11:28:43;17.08;;;12.63;;
82415;SDS011;72058;47.782;10.618;2024-03-08T11:33:39;17.83;;;12.33;;
82415;SDS011;72058;47.782;10.618;2024-03-08T11:38:47;17.80;;;12.90;;
82415;SDS011;72058;47.782;10.618;2024-03-08T11:41:17;17.85;;;12.50;;
82415;SDS011;72058;47.782;10.618;2024-03-08T11:43:46;19.52;;;13.18;;
82415;SDS011;72058;47.782;10.618;2024-03-08T11:46:12;19.58;;;13.20;;
82415;SDS011;72058;47.782;10.618;2024-03-08T11:48:41;22.35;;;13.43;;
82415;SDS011;72058;47.782;10.618;2024-03-08T11:51:11;21.63;;;14.35;;
82415;SDS011;72058;47.782;10.618;2024-03-08T11:53:37;19.00;;;12.43;;
82415;SDS011;72058;47.782;10.618;2024-03-08T11:56:12;21.15;;;14.35;;
82415;SDS011;72058;47.782;10.618;2024-03-08T11:58:39;18.90;;;13.77;;
82415;SDS011;72058;47.782;10.618;2024-03-08T12:01:05;20.10;;;12.68;;
82415;SDS011;72058;47.782;10.618;2024-03-08T12:03:41;18.38;;;12.57;;
82415;SDS011;72058;47.782;10.618;2024-03-08T12:06:12;20.30;;;13.63;;
82415;SDS011;72058;47.782;10.618;2024-03-08T12:08:40;17.70;;;11.90;;
82415;SDS011;72058;47.782;10.618;2024-03-08T12:11:05;21.92;;;14.30;;
82415;SDS011;72058;47.782;10.618;2024-03-08T12:13:32;17.90;;;12.88;;
82415;SDS011;72058;47.782;10.618;2024-03-08T12:15:59;20.48;;;11.93;;
82415;SDS011;72058;47.782;10.618;2024-03-08T12:18:34;19.52;;;10.90;;
82415;SDS011;72058;47.782;10.618;2024-03-08T12:21:10;19.75;;;13.32;;
82415;SDS011;72058;47.782;10.618;2024-03-08T12:23:37;22.63;;;14.68;;
82415;SDS011;72058;47.782;10.618;2024-03-08T12:28:40;19.98;;;14.15;;
82415;SDS011;72058;47.782;10.618;2024-03-08T12:31:07;19.17;;;12.95;;
82415;SDS011;72058;47.782;10.618;2024-03-08T12:33:36;19.98;;;12.30;;
82415;SDS011;72058;47.782;10.618;2024-03-08T12:36:14;18.27;;;14.18;;
82415;SDS011;72058;47.782;10.618;2024-03-08T12:38:43;21.02;;;13.77;;
82415;SDS011;72058;47.782;10.618;2024-03-08T12:41:09;19.23;;;13.73;;
82415;SDS011;72058;47.782;10.618;2024-03-08T12:43:34;17.87;;;11.97;;
82415;SDS011;72058;47.782;10.618;2024-03-08T12:46:00;15.43;;;11.90;;
82415;SDS011;72058;47.782;10.618;2024-03-08T12:48:25;20.30;;;13.88;;
82415;SDS011;72058;47.782;10.618;2024-03-08T12:50:51;22.15;;;15.05;;
82415;SDS011;72058;47.782;10.618;2024-03-08T12:53:17;19.17;;;13.70;;
82415;SDS011;72058;47.782;10.618;2024-03-08T12:55:42;19.48;;;13.18;;
82415;SDS011;72058;47.782;10.618;2024-03-08T12:58:08;18.88;;;13.07;;
82415;SDS011;72058;47.782;10.618;2024-03-08T13:00:34;20.20;;;14.70;;
82415;SDS011;72058;47.782;10.618;2024-03-08T13:05:27;21.58;;;14.23;;
82415;SDS011;72058;47.782;10.618;2024-03-08T13:07:53;19.83;;;12.30;;
82415;SDS011;72058;47.782;10.618;2024-03-08T13:10:20;20.73;;;14.75;;
82415;SDS011;72058;47.782;10.618;2024-03-08T13:12:45;20.48;;;13.65;;
82415;SDS011;72058;47.782;10.618;2024-03-08T13:15:11;17.65;;;13.00;;
82415;SDS011;72058;47.782;10.618;2024-03-08T13:17:40;19.48;;;13.43;;
82415;SDS011;72058;47.782;10.618;2024-03-08T13:20:07;21.35;;;13.73;;
82415;SDS011;72058;47.782;10.618;2024-03-08T13:22:34;17.40;;;12.40;;
82415;SDS011;72058;47.782;10.618;2024-03-08T13:25:00;19.17;;;12.77;;
82415;SDS011;72058;47.782;10.618;2024-03-08T13:27:27;17.65;;;12.27;;
82415;SDS011;72058;47.782;10.618;2024-03-08T13:34:45;18.80;;;13.05;;
82415;SDS011;72058;47.782;10.618;2024-03-08T13:37:16;17.77;;;12.30;;
82415;SDS011;72058;47.782;10.618;2024-03-08T13:39:42;17.45;;;12.40;;
82415;SDS011;72058;47.782;10.618;2024-03-08T13:44:39;18.60;;;12.30;;
82415;SDS011;72058;47.782;10.618;2024-03-08T13:47:08;16.15;;;12.10;;
82415;SDS011;72058;47.782;10.618;2024-03-08T13:49:33;17.05;;;12.48;;
82415;SDS011;72058;47.782;10.618;2024-03-08T13:51:59;18.20;;;13.50;;
82415;SDS011;72058;47.782;10.618;2024-03-08T13:54:24;18.63;;;12.02;;
82415;SDS011;72058;47.782;10.618;2024-03-08T13:59:19;16.35;;;11.68;;
82415;SDS011;72058;47.782;10.618;2024-03-08T14:01:47;15.85;;;11.85;;
82415;SDS011;72058;47.782;10.618;2024-03-08T14:04:13;17.02;;;11.88;;
82415;SDS011;72058;47.782;10.618;2024-03-08T14:06:39;15.63;;;12.45;;
82415;SDS011;72058;47.782;10.618;2024-03-08T14:09:04;16.30;;;12.20;;
82415;SDS011;72058;47.782;10.618;2024-03-08T14:11:32;16.88;;;11.82;;
82415;SDS011;72058;47.782;10.618;2024-03-08T14:13:58;20.05;;;12.90;;
82415;SDS011;72058;47.782;10.618;2024-03-08T14:16:23;16.08;;;11.88;;
82415;SDS011;72058;47.782;10.618;2024-03-08T14:18:49;14.40;;;11.77;;
82415;SDS011;72058;47.782;10.618;2024-03-08T14:21:14;16.17;;;11.10;;
82415;SDS011;72058;47.782;10.618;2024-03-08T14:23:42;16.43;;;11.53;;
82415;SDS011;72058;47.782;10.618;2024-03-08T14:26:08;18.52;;;12.98;;
82415;SDS011;72058;47.782;10.618;2024-03-08T14:28:34;15.27;;;11.50;;
82415;SDS011;72058;47.782;10.618;2024-03-08T14:31:00;14.63;;;11.88;;
82415;SDS011;72058;47.782;10.618;2024-03-08T14:33:28;15.88;;;11.70;;
82415;SDS011;72058;47.782;10.618;2024-03-08T14:35:54;14.82;;;10.88;;
82415;SDS011;72058;47.782;10.618;2024-03-08T14:38:19;17.37;;;10.93;;
82415;SDS011;72058;47.782;10.618;2024-03-08T14:40:45;15.35;;;10.70;;
82415;SDS011;72058;47.782;10.618;2024-03-08T14:43:12;12.23;;;10.00;;